Time;durP1;ratioP1;P1;durP2;ratioP2;P2;SDS_P1;SDS_P2;PMS_P1;PMS_P2;Temp;Humidity;BMP_temperature;BMP_pressure;BME280_temperature;BME280_humidity;BME280_pressure;Samples;Min_cycle;Max_cycle;Signal;HPM_P1;HPM_P2
2022/08/27 00:02:25;;;;;;;16.48;15.27;;;;;;;22.95;69.46;100348.69;4970135;28;102157;-50
2022/08/27 00:04:51;;;;;;;15.95;14.95;;;;;;;22.92;69.03;100350.22;4975821;28;103931;-50
2022/08/27 00:07:19;;;;;;;16.83;15.70;;;;;;;22.94;69.24;100341.53;4976793;28;101983;-50
2022/08/27 00:09:46;;;;;;;15.75;14.68;;;;;;;22.93;69.45;100351.81;4957158;28;102014;-50
2022/08/27 00:12:12;;;;;;;17.15;16.05;;;;;;;22.94;69.35;100353.44;4957710;28;102282;-50
2022/08/27 00:14:42;;;;;;;15.30;14.23;;;;;;;22.94;69.63;100352.66;4955856;28;107985;-49
2022/08/27 00:17:09;;;;;;;17.27;16.07;;;;;;;22.93;69.67;100351.81;4955541;28;102134;-50
2022/08/27 00:19:37;;;;;;;16.70;15.50;;;;;;;22.93;69.51;100351.03;4954011;28;102428;-49
2022/08/27 00:22:05;;;;;;;15.77;14.48;;;;;;;22.93;69.58;100346.28;4960461;28;102320;-50
2022/08/27 00:24:32;;;;;;;;;;;;;;;22.92;69.59;100349.41;4965844;28;103924;-49
2022/08/27 00:26:58;;;;;;;15.20;14.30;;;;;;;22.92;69.38;100339.13;4954604;28;102618;-50
2022/08/27 00:29:25;;;;;;;15.77;14.50;;;;;;;22.92;69.42;100332.78;4954837;28;102233;-50
2022/08/27 00:31:54;;;;;;;15.98;14.88;;;;;;;22.92;69.57;100332.78;4955698;28;102384;-49
2022/08/27 00:34:21;;;;;;;;;;;;;;;22.93;69.43;100328.81;4948689;27;104679;-50
2022/08/27 00:36:47;;;;;;;;;;;;;;;22.93;69.58;100328.81;4935956;28;102015;-50
2022/08/27 00:39:13;;;;;;;;;;;;;;;22.91;69.69;100320.84;4935601;28;101965;-50
2022/08/27 00:41:40;;;;;;;;;;;;;;;22.91;69.70;100322.81;4937150;28;102282;-50
2022/08/27 00:44:06;;;;;;;;;;;;;;;22.89;69.50;100322.38;4944307;28;103843;-50
2022/08/27 00:46:37;;;;;;;;;;;;;;;22.90;69.61;100327.56;4955436;28;102436;-50
2022/08/27 00:49:07;;;;;;;;;;;;;;;22.89;69.43;100312.06;4954868;28;101941;-50
2022/08/27 00:51:34;;;;;;;;;;;;;;;22.91;69.60;100320.03;4948263;28;102096;-50
2022/08/27 00:54:01;;;;;;;;;;;;;;;22.91;69.60;100320.84;4935606;28;103984;-50
2022/08/27 00:56:30;;;;;;;;;;;;;;;22.91;69.88;100317.28;4942894;28;102569;-50
2022/08/27 00:58:56;;;;;;;;;;;;;;;22.91;69.29;100320.03;4974984;28;101965;-50
2022/08/27 01:01:24;;;;;;;;;;;;;;;22.91;69.36;100326.41;4975508;28;102262;-50
2022/08/27 01:03:53;;;;;;;;;;;;;;;22.89;69.68;100322.38;4974016;28;103888;-50
2022/08/27 01:06:21;;;;;;;;;;;;;;;22.91;69.66;100343.03;4974118;28;101997;-50
2022/08/27 01:08:50;;;;;;;;;;;;;;;22.89;69.47;100328.72;4954507;28;102528;-50
2022/08/27 01:11:17;;;;;;;;;;;;;;;22.90;69.70;100344.22;4947983;28;102416;-50
2022/08/27 01:13:43;;;;;;;;;;;;;;;22.90;69.51;100347.00;4954027;28;103914;-50
2022/08/27 01:16:10;;;;;;;;;;;;;;;22.89;69.60;100350.09;4957244;27;102422;-50
2022/08/27 01:18:37;;;;;;;;;;;;;;;22.91;69.50;100358.88;4958503;28;102450;-50
2022/08/27 01:21:08;;;;;;;;;;;;;;;22.89;69.42;100367.56;4955665;28;102220;-50
2022/08/27 01:23:39;;;;;;;;;;;;;;;22.91;69.53;100375.53;4934744;28;104020;-50
2022/08/27 01:26:08;;;;;;;;;;;;;;;22.89;69.59;100366.75;4947508;28;102292;-50
2022/08/27 01:28:35;;;;;;;;;;;;;;;22.89;69.60;100364.78;4954415;28;101971;-50
2022/08/27 01:31:02;;;;;;;;;;;;;;;22.89;69.57;100375.09;4955647;28;102445;-50
2022/08/27 01:33:28;;;;;;;;;;;;;;;22.89;69.32;100372.31;4961900;28;103885;-50
2022/08/27 01:35:54;;;;;;;;;;;;;;;22.89;69.62;100378.66;4934984;28;102421;-50
2022/08/27 01:38:23;;;;;;;;;;;;;;;22.89;69.75;100383.41;4946825;28;102373;-50
2022/08/27 01:40:49;;;;;;;;;;;;;;;22.88;69.63;100376.25;4954196;28;102090;-50
2022/08/27 01:43:17;;;;;;;;;;;;;;;22.89;69.60;100377.84;4940686;28;103954;-50
2022/08/27 01:45:44;;;;;;;;;;;;;;;22.88;69.43;100379.03;4933876;28;102092;-50
2022/08/27 01:48:10;;;;;;;;;;;;;;;22.89;69.66;100380.63;4933646;28;102458;-50
2022/08/27 01:50:39;;;;;;;;;;;;;;;22.89;69.62;100381.44;4967844;28;102448;-50
2022/08/27 01:53:07;;;;;;;;;;;;;;;22.88;69.64;100379.84;4961496;28;103832;-50
2022/08/27 01:55:34;;;;;;;;;;;;;;;22.88;69.55;100381.81;4970973;28;101978;-50
2022/08/27 01:58:00;;;;;;;;;;;;;;;22.90;69.64;100382.22;4953676;28;102809;-50
2022/08/27 02:00:30;;;;;;;;;;;;;;;22.89;69.59;100378.66;4941730;28;102291;-51
2022/08/27 02:02:57;;;;;;;;;;;;;;;22.88;69.61;100381.81;4966460;28;103964;-50
2022/08/27 02:05:23;;;;;;;;;;;;;;;22.88;69.76;100381.81;4953143;28;101986;-50
2022/08/27 02:07:50;;;;;;;;;;;;;;;22.88;69.45;100381.81;4940187;28;102361;-51
2022/08/27 02:10:18;;;;;;;;;;;;;;;22.86;69.59;100373.03;4951473;28;102632;-50
2022/08/27 02:12:45;;;;;;;;;;;;;;;22.87;69.62;100374.66;4964818;28;103864;-52
2022/08/27 02:15:14;;;;;;;;;;;;;;;22.86;69.62;100367.47;4954732;28;102235;-50
2022/08/27 02:17:42;;;;;;;;;;;;;;;22.86;69.53;100370.25;4969541;28;102309;-50
2022/08/27 02:20:09;;;;;;;;;;;;;;;22.86;69.48;100373.81;4964483;28;102297;-50
2022/08/27 02:22:37;;;;;;;;;;;;;;;22.86;69.43;100384.13;4959013;28;104212;-50
2022/08/27 02:25:05;;;;;;;;;;;;;;;22.85;69.36;100385.31;4954066;28;102491;-50
2022/08/27 02:27:31;;;;;;;;;;;;;;;22.83;69.31;100376.53;4952095;28;102114;-50
2022/08/27 02:29:57;;;;;;;;;;;;;;;22.85;69.13;100372.22;4953053;28;102324;-50
2022/08/27 02:32:24;;;;;;;;;;;;;;;22.85;68.96;100376.97;4952298;28;106150;-50
2022/08/27 02:34:51;;;;;;;;;;;;;;;22.85;69.02;100371.44;4934557;28;102436;-49
2022/08/27 02:37:17;;;;;;;;;;;;;;;22.83;69.02;100379.31;4959888;28;102406;-50
2022/08/27 02:39:43;;;;;;;;;;;;;;;22.84;68.86;100375.38;4967506;28;102425;-50
2022/08/27 02:42:10;;;;;;;;;;;;;;;22.83;68.91;100368.19;4951938;28;103872;-49
2022/08/27 02:44:36;;;;;;;;;;;;;;;22.83;68.91;100368.19;4938667;28;102355;-50
2022/08/27 02:47:03;;;;;;;;;;;;;;;22.82;68.85;100367.41;4967624;28;102410;-50
2022/08/27 02:49:29;;;;;;;;;;;;;;;22.82;69.07;100364.63;4965339;28;102133;-50
2022/08/27 02:51:57;;;;;;;;;;;;;;;22.81;68.93;100363.03;4957441;28;104277;-50
2022/08/27 02:54:23;;;;;;;;;;;;;;;22.81;68.76;100359.47;4971456;27;102891;-50
2022/08/27 02:56:51;;;;;;;;;;;;;;;22.82;68.66;100361.06;4971775;28;102614;-50
2022/08/27 02:59:17;;;;;;;;;;;;;;;22.80;68.83;100358.66;4964601;28;102650;-50
2022/08/27 03:01:43;;;;;;;;;;;;;;;22.82;68.75;100361.06;4958339;27;103903;-50
2022/08/27 03:04:10;;;;;;;;;;;;;;;22.80;68.68;100358.66;4972068;28;102217;-50
2022/08/27 03:06:36;;;;;;;;;;;;;;;22.82;69.18;100361.06;4964550;28;102515;-50
2022/08/27 03:09:04;;;;;;;;;;;;;;;22.81;68.91;100365.81;4932941;28;102504;-50
2022/08/27 03:11:30;;;;;;;;;;;;;;;22.80;69.12;100361.44;4931030;28;104172;-50
2022/08/27 03:13:57;;;;;;;;;;;;;;;22.79;69.01;100363.41;4933559;28;102297;-50
2022/08/27 03:16:24;;;;;;;;;;;;;;;22.78;68.98;100363.75;4932216;28;102316;-50
2022/08/27 03:18:51;;;;;;;;;;;;;;;22.81;69.10;100365.00;4932558;28;102671;-50
2022/08/27 03:21:19;;;;;;;;;;;;;;;22.79;69.07;100362.56;4937954;27;103837;-50
2022/08/27 03:23:47;;;;;;;;;;;;;;;22.79;69.20;100363.41;4950300;28;102395;-50
2022/08/27 03:26:15;;;;;;;;;;;;;;;22.77;69.10;100360.19;4945313;28;102163;-50
2022/08/27 03:28:41;;;;;;;;;;;;;;;22.79;69.13;100357.84;4954239;28;102339;-50
2022/08/27 03:31:13;;;;;;;;;;;;;;;22.80;68.81;100358.66;4954268;28;103917;-50
2022/08/27 03:33:40;;;;;;;;;;;;;;;22.77;68.75;100353.81;4955388;28;102638;-50
2022/08/27 03:36:07;;;;;;;;;;;;;;;22.78;69.12;100350.69;4954277;28;102403;-50
2022/08/27 03:38:34;;;;;;;;;;;;;;;22.81;69.00;100353.91;4954725;28;102305;-50
2022/08/27 03:41:01;;;;;;;;;;;;;;;22.81;68.87;100348.34;4950079;27;103897;-50
2022/08/27 03:43:29;;;;;;;;;;;;;;;22.78;68.78;100350.69;4952019;28;102342;-50
2022/08/27 03:45:56;;;;;;;;;;;;;;;22.77;69.08;100346.31;4953697;28;102353;-50
2022/08/27 03:48:22;;;;;;;;;;;;;;;22.78;69.12;100344.31;4954864;28;102162;-50
2022/08/27 03:50:49;;;;;;;;;;;;;;;22.76;69.18;100341.94;4953572;28;104734;-50
2022/08/27 03:53:16;;;;;;;;;;;;;;;22.78;69.00;100352.66;4954282;28;102028;-50
2022/08/27 03:55:42;;;;;;;;;;;;;;;22.78;69.14;100350.69;4953824;28;102049;-50
2022/08/27 03:58:09;;;;;;;;;;;;;;;22.77;69.14;100359.38;4951047;28;102464;-50
2022/08/27 04:00:38;;;;;;;;;;;;;;;22.75;68.83;100359.72;4952753;28;104167;-50
2022/08/27 04:03:05;;;;;;;;;;;;;;;22.76;68.90;100366.09;4955192;28;102867;-50
2022/08/27 04:05:32;;;;;;;;;;;;;;;22.79;68.95;100362.56;4953653;28;102461;-50
2022/08/27 04:07:58;;;;;;;;;;;;;;;22.78;68.77;100366.53;4955480;28;102272;-50
2022/08/27 04:10:24;;;;;;;;;;;;;;;22.76;68.49;100364.13;4948692;28;103900;-50
2022/08/27 04:12:50;;;;;;;;;;;;;;;22.78;68.72;100359.00;4935386;27;101991;-50
2022/08/27 04:15:16;;;;;;;;;;;;;;;22.76;68.96;100358.56;4944517;28;102189;-50
2022/08/27 04:17:45;;;;;;;;;;;;;;;22.78;69.06;100355.44;4951079;28;102216;-50
2022/08/27 04:20:11;;;;;;;;;;;;;;;22.78;68.87;100359.00;4953559;28;103841;-50
2022/08/27 04:22:38;;;;;;;;;;;;;;;22.78;68.98;100361.78;4954794;28;102299;-50
2022/08/27 04:25:04;;;;;;;;;;;;;;;22.78;68.93;100361.78;4954910;28;102357;-50
2022/08/27 04:27:30;;;;;;;;;;;;;;;22.78;68.89;100367.31;4955657;27;102189;-50
2022/08/27 04:29:58;;;;;;;;;;;;;;;22.79;68.95;100357.84;4953932;28;103851;-51
2022/08/27 04:32:24;;;;;;;;;;;;;;;22.78;68.96;100349.88;4948980;28;102055;-50
2022/08/27 04:34:53;;;;;;;;;;;;;;;22.78;68.98;100356.22;4935131;28;102269;-50
2022/08/27 04:37:20;;;;;;;;;;;;;;;22.78;69.24;100361.78;4937124;28;102549;-50
2022/08/27 04:39:46;;;;;;;;;;;;;;;22.81;69.06;100359.47;4934084;28;103892;-50
2022/08/27 04:42:12;;;;;;;;;;;;;;;22.79;68.87;100355.09;4934851;28;102137;-50
2022/08/27 04:44:38;;;;;;;;;;;;;;;22.78;69.24;100356.22;4934111;27;102280;-50
2022/08/27 04:47:05;;;;;;;;;;;;;;;22.79;69.14;100362.56;4935804;28;102476;-50
2022/08/27 04:49:32;;;;;;;;;;;;;;;22.78;69.13;100366.53;4941488;28;103785;-50
2022/08/27 04:52:00;;;;;;;;;;;;;;;22.78;69.05;100356.22;4954132;28;102022;-50
2022/08/27 04:54:26;;;;;;;;;;;;;;;22.80;69.20;100358.66;4953027;28;102346;-50
2022/08/27 04:56:52;;;;;;;;;;;;;;;22.79;69.03;100363.41;4953623;28;102679;-50
2022/08/27 04:59:19;;;;;;;;;;;;;;;22.81;69.17;100365.00;4946057;28;104109;-50
2022/08/27 05:01:45;;;;;;;;;;;;;;;22.81;69.03;100365.81;4959989;28;102377;-50
2022/08/27 05:04:12;;;;;;;;;;;;;;;22.79;69.01;100363.41;4972256;28;102506;-50
2022/08/27 05:06:38;;;;;;;;;;;;;;;22.79;69.16;100357.84;4956126;28;102609;-50
2022/08/27 05:09:06;;;;;;;;;;;;;;;22.82;69.29;100369.38;4946459;27;103923;-50
2022/08/27 05:11:33;;;;;;;;;;;;;;;22.81;69.03;100365.00;4933251;28;102290;-50
2022/08/27 05:14:00;;;;;;;;;;;;;;;22.81;68.64;100359.47;4938007;28;102387;-50
2022/08/27 05:16:26;;;;;;;;;;;;;;;22.82;69.19;100366.59;4953377;28;102529;-50
2022/08/27 05:18:52;;;;;;;;;;;;;;;22.81;69.24;100356.69;4951639;28;104132;-50
2022/08/27 05:21:19;;;;;;;;;;;;;;;22.82;68.63;100355.50;4952346;28;102282;-50
2022/08/27 05:23:46;;;;;;;;;;;;;;;22.81;69.04;100357.47;4944191;28;102491;-50
2022/08/27 05:26:14;;;;;;;;;;;;;;;22.82;69.07;100355.50;4934808;28;102249;-50
2022/08/27 05:28:40;;;;;;;;;;;;;;;22.83;69.06;100351.56;4952746;28;103991;-50
2022/08/27 05:31:07;;;;;;;;;;;;;;;22.84;69.15;100345.66;4953235;28;102245;-51
2022/08/27 05:33:33;;;;;;;;;;;;;;;22.83;69.00;100344.06;4953171;28;102604;-50
2022/08/27 05:36:00;;;;;;;;;;;;;;;22.85;69.02;100350.03;4949655;28;102294;-50
2022/08/27 05:38:26;;;;;;;;;;;;;;;22.86;69.18;100345.28;4952276;28;104027;-50
2022/08/27 05:41:01;;;;;;;;;;;;;;;22.86;69.27;100343.31;4942347;28;101938;-50
2022/08/27 05:43:28;;;;;;;;;;;;;;;22.89;69.33;100339.00;4932562;28;102037;-50
2022/08/27 05:45:55;;;;;;;;;;;;;;;22.90;69.27;100349.75;4934099;28;102438;-50
2022/08/27 05:48:21;;;;;;;;;;;;;;;22.89;69.24;100350.91;4932927;28;104168;-50
2022/08/27 05:50:47;;;;;;;;;;;;;;;22.92;69.24;100354.97;4932209;28;102230;-50
2022/08/27 05:53:13;;;;;;;;;;;;;;;22.92;69.33;100349.41;4931917;28;102173;-50
2022/08/27 05:55:40;;;;;;;;;;;;;;;22.92;69.30;100343.88;4933031;28;102382;-50
2022/08/27 05:58:07;;;;;;;;;;;;;;;22.94;69.07;100347.09;4942098;28;103844;-50
2022/08/27 06:03:36;;;;;;;;;;;;;;;22.96;69.37;100353.06;4909907;28;102333;-50
2022/08/27 06:06:06;;;;;;;;;;;;;;;22.97;69.22;100340.78;4953094;28;102304;-50
2022/08/27 06:08:33;;;;;;;;;;;;;;;22.97;69.48;100340.78;4950579;28;104182;-50
2022/08/27 06:11:00;;;;;;;;;;;;;;;22.97;69.39;100335.25;4951903;28;102052;-50
2022/08/27 06:13:27;;;;;;;;;;;;;;;22.97;69.41;100335.25;4946972;28;102722;-50
2022/08/27 06:16:01;;;;;;;;;;;;;;;22.98;69.46;100339.66;4952601;28;102530;-50
2022/08/27 06:18:27;;;;;;;;;;;;;;;22.98;69.36;100336.88;4946743;28;103868;-50
2022/08/27 06:20:53;;;;;;;;;;;;;;;22.98;69.42;100326.56;4954348;28;102738;-50
2022/08/27 06:23:20;;;;;;;;;;;;;;;22.98;69.54;100320.22;4951453;28;102118;-50
2022/08/27 06:25:46;;;;;;;;;;;;;;;22.98;69.37;100332.13;4952313;28;102590;-50
2022/08/27 06:28:12;;;;;;;;;;;;;;;22.99;69.37;100325.41;4950915;28;104275;-50
2022/08/27 06:30:38;;;;;;;;;;;;;;;22.99;69.47;100322.63;4950806;28;101980;-50
2022/08/27 06:33:06;;;;;;;;;;;;;;;23.00;69.35;100324.22;4931969;28;102359;-50
2022/08/27 06:35:33;;;;;;;;;;;;;;;23.01;69.42;100331.41;4962595;28;102285;-50
2022/08/27 06:37:59;;;;;;;;;;;;;;;23.02;69.33;100334.97;4951250;28;103922;-50
2022/08/27 06:40:25;;;;;;;;;;;;;;;23.04;69.28;100338.16;4952130;28;102266;-50
2022/08/27 06:42:51;;;;;;;;;;;;;;;23.04;69.36;100346.50;4951150;28;102701;-50
2022/08/27 06:45:18;;;;;;;;;;;;;;;23.04;69.37;100346.50;4952151;28;102288;-50
2022/08/27 06:47:44;;;;;;;;;;;;;;;23.04;69.37;100346.50;4949587;28;104045;-50
2022/08/27 06:50:12;;;;;;;;;;;;;;;23.05;69.42;100352.88;4931993;28;102431;-50
2022/08/27 06:52:38;;;;;;;;;;;;;;;23.04;69.11;100346.50;4931021;28;102131;-50
2022/08/27 06:55:05;;;;;;;;;;;;;;;23.06;69.22;100355.28;4956961;28;102473;-50
2022/08/27 06:57:31;;;;;;;;;;;;;;;23.07;69.19;100358.84;4970337;28;104083;-50
2022/08/27 06:59:57;;;;;;;;;;;;;;;23.08;69.14;100364.06;4957058;28;102050;-50
2022/08/27 07:02:23;;;;;;;;;;;;;;;23.08;69.21;100358.50;4950807;28;102245;-50
2022/08/27 07:04:51;;;;;;;;;;;;;;;23.09;69.18;100357.31;4953250;28;102347;-50
2022/08/27 07:07:19;;;;;;;;;;;;;;;23.10;69.05;100361.69;4935453;28;104244;-50
2022/08/27 07:09:45;;;;;;;;;;;;;;;23.11;69.21;100349.41;4954605;27;102443;-50
2022/08/27 07:12:14;;;;;;;;;;;;;;;23.13;68.79;100351.84;4989653;27;102310;-50
2022/08/27 07:14:41;;;;;;;;;;;;;;;23.13;68.33;100360.97;4967259;27;102203;-50
2022/08/27 07:17:08;;;;;;;;;;;;;;;23.16;66.95;100356.66;4954054;28;104077;-50
2022/08/27 07:19:37;;;;;;;;;;;;;;;23.14;68.84;100359.78;4970196;28;102321;-50
2022/08/27 07:22:03;;;;;;;;;;;;;;;23.17;66.63;100356.28;4951678;28;102497;-50
2022/08/27 07:24:31;;;;;;;;;;;;;;;23.20;66.68;100350.00;4970305;28;102357;-50
2022/08/27 07:26:57;;;;;;;;;;;;;;;23.19;67.32;100353.16;4974732;28;103896;-51
2022/08/27 07:29:24;;;;;;;;;;;;;;;23.17;68.28;100361.84;4957506;28;102275;-50
2022/08/27 07:31:50;;;;;;;;;;;;;;;23.16;67.93;100370.56;4955885;28;102561;-50
2022/08/27 07:34:16;;;;;;;;;;;;;;;23.20;66.68;100371.41;4956918;28;102426;-50
2022/08/27 07:36:42;;;;;;;;;;;;;;;23.20;66.39;100375.00;4955607;28;103981;-50
2022/08/27 07:39:08;;;;;;;;;;;;;;;23.23;65.57;100373.47;4950642;28;102282;-50
2022/08/27 07:44:23;;;;;;;;;;;;;;;23.22;67.94;100375.44;4954876;28;102411;-50
2022/08/27 07:44:26;;;;;;;;;;;;;;;23.20;67.08;100366.66;4969694;28;102274;-50
2022/08/27 07:46:54;;;;;;;;;;;;;;;23.21;67.16;100370.25;4973936;28;103887;-50
2022/08/27 07:49:21;;;;;;;;;;;;;;;23.20;67.84;100366.66;4970006;28;102038;-50
2022/08/27 07:51:47;;;;;;;;;;;;;;;23.22;66.37;100369.91;4968638;28;102375;-51
2022/08/27 07:54:14;;;;;;;;;;;;;;;23.30;65.18;100372.78;4959429;28;102667;-50
2022/08/27 07:56:41;;;;;;;;;;;;;;;23.28;66.92;100373.16;4950471;28;103818;-50
2022/08/27 07:59:08;;;;;;;;;;;;;;;23.26;66.69;100376.31;4997334;27;102168;-51
2022/08/27 08:01:34;;;;;;;;;;;;;;;23.24;67.65;100378.66;4952836;28;102296;-50
2022/08/27 08:04:00;;;;;;;;;;;;;;;23.25;66.63;100380.25;5015815;27;102177;-51
2022/08/27 08:06:27;;;;;;;;;;;;;;;23.28;66.87;100384.28;4966365;28;104096;-50
2022/08/27 08:08:53;;;;;;;;;;;;;;;23.27;67.77;100374.34;4971585;27;102254;-51
2022/08/27 08:11:20;;;;;;;;;;;;;;;23.26;66.79;100378.28;4968516;27;102882;-50
2022/08/27 08:13:47;;;;;;;;;;;;;;;23.29;66.95;100382.28;4981313;27;102457;-50
2022/08/27 08:16:14;;;;;;;;;;;;;;;23.25;67.67;100385.78;5058013;27;104128;-50
2022/08/27 08:18:40;;;;;;;;;;;;;;;23.28;65.91;100378.72;4981321;27;102211;-50
2022/08/27 08:21:07;;;;;;;;;;;;;;;23.31;67.12;100382.75;4965985;28;102024;-50
2022/08/27 08:23:34;;;;;;;;;;;;;;;23.27;67.53;100389.03;4960087;28;102195;-50
2022/08/27 08:26:00;;;;;;;;;;;;;;;23.28;66.97;100378.72;4982695;27;103805;-51
2022/08/27 08:28:27;;;;;;;;;;;;;;;23.27;67.29;100383.47;4959220;27;102258;-50
2022/08/27 08:30:56;;;;;;;;;;;;;;;23.29;66.69;100376.75;4948384;28;102471;-50
2022/08/27 08:33:23;;;;;;;;;;;;;;;23.30;67.62;100375.56;4956140;28;102285;-50
2022/08/27 08:35:49;;;;;;;;;;;;;;;23.27;68.10;100372.38;4954320;28;103877;-50
2022/08/27 08:38:15;;;;;;;;;;;;;;;23.30;67.51;100375.56;4959699;28;102363;-50
2022/08/27 08:40:43;;;;;;;;;;;;;;;23.33;66.64;100380.38;4935811;28;102242;-50
2022/08/27 08:43:20;;;;;;;;;;;;;;;23.35;66.17;100384.41;4951479;28;102378;-50
2022/08/27 08:45:47;;;;;;;;;;;;;;;23.38;65.74;100385.66;4954986;28;103911;-50
2022/08/27 08:48:18;;;;;;;;;;;;;;;23.40;65.65;100391.66;4948714;28;102211;-50
2022/08/27 08:50:49;;;;;;;;;;;;;;;23.38;65.85;100382.88;4954271;28;102995;-50
2022/08/27 08:53:18;;;;;;;;;;;;;;;23.38;65.22;100391.22;4956142;28;102800;-50
2022/08/27 08:55:47;;;;;;;;;;;;;;;23.40;65.10;100386.09;4954857;28;103927;-50
2022/08/27 08:58:20;;;;;;;;;;;;;;;23.39;66.03;100384.50;4954947;28;102565;-50
2022/08/27 09:00:52;;;;;;;;;;;;;;;23.35;65.53;100383.63;4954696;28;102266;-50
2022/08/27 09:03:19;;;;;;;;;;;;;;;23.37;65.67;100389.59;4975160;28;102221;-50
2022/08/27 09:05:48;;;;;;;;;;;;;;;23.39;65.80;100379.72;4955911;28;104014;-50
2022/08/27 09:08:17;;;;;;;;;;;;;;;23.37;66.04;100386.81;4955502;28;102273;-50
2022/08/27 09:10:50;;;;;;;;;;;;;;;23.40;65.20;100383.31;4955064;28;102419;-50
2022/08/27 09:13:19;;;;;;;;;;;;;;;23.42;65.27;100383.75;4956005;28;102191;-50
2022/08/27 09:15:46;;;;;;;;;;;;;;;23.43;65.24;100379.81;4954322;28;103921;-50
2022/08/27 09:18:13;;;;;;;;;;;;;;;23.42;65.27;100383.75;4954983;28;102676;-50
2022/08/27 09:20:43;;;;;;;;;;;;;;;23.39;64.81;100385.28;4967519;28;102207;-50
2022/08/27 09:23:13;;;;;;;;;;;;;;;23.38;65.49;100394.00;4936095;28;103999;-50
2022/08/27 09:25:40;;;;;;;;;;;;;;;23.38;65.37;100388.44;4933506;28;105361;-50
2022/08/27 09:29:14;;;;;;;;;;;;;;;23.41;65.85;100387.72;4954136;28;102229;-50
2022/08/27 09:30:56;;;;;;;;;;;;;;;23.41;65.74;100387.72;4953977;28;102317;-50
2022/08/27 09:33:22;;;;;;;;;;;;;;;23.41;65.37;100384.94;4955618;28;102628;-50
2022/08/27 09:35:51;;;;;;;;;;;;;;;23.42;65.11;100387.34;4954106;27;103926;-50
2022/08/27 09:38:23;;;;;;;;;;;;;;;23.41;65.47;100394.06;4954145;28;102186;-51
2022/08/27 09:40:50;;;;;;;;;;;;;;;23.41;65.19;100401.59;4954837;28;102559;-50
2022/08/27 09:43:19;;;;;;;;;;;;;;;23.40;65.96;100402.75;4955225;28;102542;-50
2022/08/27 09:45:47;;;;;;;;;;;;;;;23.38;65.52;100394.00;4953926;28;103874;-50
2022/08/27 09:48:15;;;;;;;;;;;;;;;23.38;65.66;100397.56;4954390;28;102526;-50
2022/08/27 09:50:53;;;;;;;;;;;;;;;23.39;65.59;100398.38;4954402;28;102278;-50
2022/08/27 09:53:24;;;;;;;;;;;;;;;23.41;65.95;100398.81;4954602;28;102506;-50
2022/08/27 09:55:52;;;;;;;;;;;;;;;23.39;65.56;100401.94;4952361;28;104012;-50
2022/08/27 09:58:20;;;;;;;;;;;;;;;23.43;65.01;100407.56;4953723;27;102830;-50
2022/08/27 10:00:47;;;;;;;;;;;;;;;23.42;65.79;100400.44;4953951;28;102553;-50
2022/08/27 10:03:13;;;;;;;;;;;;;;;23.41;65.30;100409.94;4973834;28;102113;-50
2022/08/27 10:05:42;;;;;;;;;;;;;;;23.40;65.74;100414.66;4973092;28;103965;-50
2022/08/27 10:08:17;;;;;;;;;;;;;;;23.39;65.84;100412.25;4973635;28;102329;-50
2022/08/27 10:10:50;;;;;;;;;;;;;;;23.38;65.83;100416.22;4940734;27;102435;-50
2022/08/27 10:13:18;;;;;;;;;;;;;;;23.37;66.91;100417.34;4963365;27;104375;-50
2022/08/27 10:15:51;;;;;;;;;;;;;;;23.35;65.97;100412.19;4951488;28;104038;-50
2022/08/27 10:18:22;;;;;;;;;;;;;;;23.36;66.27;100410.22;4954107;27;102265;-50
2022/08/27 10:20:54;;;;;;;;;;;;;;;23.35;66.76;100419.72;4943297;28;102319;-50
2022/08/27 10:23:26;;;;;;;;;;;;;;;23.35;66.54;100416.94;4955293;28;102409;-50
2022/08/27 10:25:57;;;;;;;;;;;;;;;23.33;67.20;100416.50;4973131;28;103959;-50
2022/08/27 10:28:32;;;;;;;;;;;;;;;23.31;68.02;100416.06;4974024;28;102342;-50
2022/08/27 10:31:08;;;;;;;;;;;;;;;23.31;67.43;100416.06;4967766;28;102446;-50
2022/08/27 10:33:38;;;;;;;;;;;;;;;23.31;67.41;100419.66;4974920;28;102092;-50
2022/08/27 10:36:09;;;;;;;;;;;;;;;23.33;67.56;100420.06;4957779;28;104575;-50
2022/08/27 10:38:37;;;;;;;;;;;;;;;23.31;67.10;100425.19;4954112;28;101947;-50
2022/08/27 10:41:11;;;;;;;;;;;;;;;23.31;68.05;100432.72;4944670;28;102122;-50
2022/08/27 10:43:51;;;;;;;;;;;;;;;23.29;68.32;100423.94;4938642;28;102157;-50
2022/08/27 10:46:35;;;;;;;;;;;;;;;23.27;67.34;100430.66;4943807;28;103922;-50
2022/08/27 10:49:07;;;;;;;;;;;;;;;23.31;67.62;100424.41;4948220;28;102679;-50
2022/08/27 10:51:40;;;;;;;;;;;;;;;23.33;67.21;100424.81;4938020;28;102539;-50
2022/08/27 10:54:14;;;;;;;;;;;;;;;23.30;67.16;100420.00;4948220;28;102259;-50
2022/08/27 10:56:44;;;;;;;;;;;;;;;23.32;67.22;100423.22;4938439;27;104070;-50
2022/08/27 10:59:15;;;;;;;;;;;;;;;23.31;68.00;100425.19;4952910;28;101992;-50
2022/08/27 11:01:45;;;;;;;;;;;;;;;23.30;66.92;100425.53;4957128;28;102077;-50
2022/08/27 11:04:14;;;;;;;;;;;;;;;23.32;67.02;100431.53;4953952;28;102077;-50
2022/08/27 11:06:41;;;;;;;;;;;;;;;23.31;68.19;100421.63;4950389;28;104200;-50
2022/08/27 11:09:12;;;;;;;;;;;;;;;23.27;67.99;100416.78;4940478;27;102392;-50
2022/08/27 11:11:39;;;;;;;;;;;;;;;23.30;67.99;100426.38;4948430;28;102044;-50
2022/08/27 11:14:13;;;;;;;;;;;;;;;23.27;67.32;100419.56;4956455;28;102199;-50
2022/08/27 11:16:44;;;;;;;;;;;;;;;23.29;68.21;100419.19;4953720;28;108693;-51
2022/08/27 11:19:14;;;;;;;;;;;;;;;23.28;68.09;100417.59;4955291;28;102260;-50
2022/08/27 11:21:44;;;;;;;;;;;;;;;23.29;67.15;100418.38;4952570;28;102118;-50
2022/08/27 11:24:16;;;;;;;;;;;;;;;23.32;67.60;100420.44;4955574;28;102229;-50
2022/08/27 11:26:43;;;;;;;;;;;;;;;23.32;66.99;100414.88;4954130;28;103915;-50
2022/08/27 11:29:17;;;;;;;;;;;;;;;23.32;67.68;100412.13;4955035;28;102425;-50
2022/08/27 11:31:48;;;;;;;;;;;;;;;23.28;68.68;100412.03;4957279;28;102269;-50
2022/08/27 11:34:19;;;;;;;;;;;;;;;23.26;68.36;100409.63;4955536;28;102562;-50
2022/08/27 11:36:54;;;;;;;;;;;;;;;23.27;68.02;100405.69;4950028;28;103953;-50
2022/08/27 11:39:28;;;;;;;;;;;;;;;23.28;67.97;100409.25;4943250;27;102153;-50
2022/08/27 11:42:00;;;;;;;;;;;;;;;23.26;68.23;100401.31;4935091;28;102497;-50
2022/08/27 11:44:28;;;;;;;;;;;;;;;23.26;68.64;100397.69;4957438;28;102154;-50
2022/08/27 11:46:56;;;;;;;;;;;;;;;23.27;68.18;100400.13;4953462;28;103933;-50
2022/08/27 11:49:28;;;;;;;;;;;;;;;23.25;68.69;100405.22;4955637;28;102486;-50
2022/08/27 11:51:56;;;;;;;;;;;;;;;23.26;67.39;100395.75;4959679;28;102248;-50
2022/08/27 11:54:25;;;;;;;;;;;;;;;23.29;67.47;100401.72;4964420;28;102116;-50
2022/08/27 11:56:51;;;;;;;;;;;;;;;23.26;68.63;100409.63;4956063;28;104025;-50
2022/08/27 11:59:21;;;;;;;;;;;;;;;23.25;68.85;100405.22;4975888;28;102096;-50
2022/08/27 12:01:50;;;;;;;;;;;;;;;23.26;68.59;100404.09;4966435;27;101997;-50
2022/08/27 12:04:23;;;;;;;;;;;;;;;23.24;68.95;100406.41;4957939;28;102324;-50
2022/08/27 12:06:50;;;;;;;;;;;;;;;23.23;69.04;100398.47;4956065;28;104842;-50
2022/08/27 12:09:19;;;;;;;;;;;;;;;23.23;68.68;100399.25;4951452;28;102142;-50
2022/08/27 12:11:53;;;;;;;;;;;;;;;23.25;68.69;100402.47;4950460;27;102112;-50
2022/08/27 12:14:26;;;;;;;;;;;;;;;23.24;68.95;100400.84;4951843;28;102664;-50
2022/08/27 12:16:56;;;;;;;;;;;;;;;23.23;69.02;100395.69;4956436;28;103940;-50
2022/08/27 12:19:29;;;;;;;;;;;;;;;23.23;69.08;100398.47;4955247;28;102327;-49
2022/08/27 12:22:05;;;;;;;;;;;;;;;23.20;68.68;100388.88;4956922;28;102685;-50
2022/08/27 12:24:40;;;;;;;;;;;;;;;23.20;69.02;100394.44;4962982;28;102184;-51
2022/08/27 12:27:14;;;;;;;;;;;;;;;23.21;69.15;100392.44;4976259;28;103892;-50
2022/08/27 12:29:44;;;;;;;;;;;;;;;23.20;69.05;100388.88;4942748;28;102037;-50
2022/08/27 12:32:24;;;;;;;;;;;;;;;23.20;69.09;100397.22;4952066;28;102173;-50